Eco Sailor — SW6634 — position and weather

sailwx.info

Track history (hours):
 
Tides and Currents Weather Stations Pressure Air Temp Water Temp Dewpoint Dewpoint Depression Visibility Wind Speed Wind Dir Waves Ship Positions

Eco Sailor

Last reported at 2018-Apr-25 12:30 UTC. Time now 2018-Apr-25 12:45 UTC.
Position N 37°57' E 023°36'.

Length 42 m; draft 3.1 m.

Type: Tanker. MMSI: 237240400.

Date/timePositionNaut miles runAvg speedWind from/ knotsBaromVisibWave heightAir tempDewpointWater temp
2018-Apr-25 12:30N 37°57' E 023°36'0 0.3
2018-Apr-25 12:00N 37°57' E 023°36'1 1.2
2018-Apr-25 11:30N 37°57' E 023°35'3 6.9
2018-Apr-25 11:00N 37°54' E 023°33'3 4.6
2018-Apr-25 10:20N 37°51' E 023°31'0 0.0
2018-Apr-25 09:59N 37°51' E 023°31'0 0.0
2018-Apr-25 08:48N 37°51' E 023°31'0 0.0
2018-Apr-25 08:19N 37°51' E 023°31'0 0.0
2018-Apr-25 08:00N 37°51' E 023°31'0 0.0
2018-Apr-25 07:15N 37°51' E 023°31'0 0.1
2018-Apr-25 06:51N 37°51' E 023°31'2 6.7
2018-Apr-25 06:30N 37°53' E 023°33'4 7.6
2018-Apr-25 06:00N 37°56' E 023°36'1 0.1
2018-Apr-24 09:06N 37°57' E 023°37'0 1.3
2018-Apr-24 09:00N 37°57' E 023°37'0 0.1
2018-Apr-24 08:30N 37°57' E 023°37'0 0.0
2018-Apr-24 08:00N 37°57' E 023°37'0 0.0
2018-Apr-24 07:30N 37°57' E 023°37'0 0.0
2018-Apr-24 07:00N 37°57' E 023°37'0 0.0
2018-Apr-24 06:30N 37°57' E 023°37'0 0.0
2018-Apr-24 06:00N 37°57' E 023°37'0 0.0
2018-Apr-24 05:30N 37°57' E 023°37'0 0.0
2018-Apr-23 12:58N 37°57' E 023°37'3 5.6
2018-Apr-23 12:30N 37°55' E 023°34'1 2.5
2018-Apr-23 12:00N 37°55' E 023°33'0 0.1
2018-Apr-23 11:30N 37°55' E 023°33'0 0.0
2018-Apr-23 11:00N 37°55' E 023°33'0 0.0
2018-Apr-23 10:30N 37°55' E 023°33'0 0.0
2018-Apr-23 10:00N 37°55' E 023°33'0 0.0
2018-Apr-23 09:30N 37°55' E 023°33'0 0.0
2018-Apr-23 09:00N 37°55' E 023°33'0 0.0
2018-Apr-23 08:30N 37°55' E 023°33'0 1.0
2018-Apr-23 08:00N 37°55' E 023°33'3 5.4
2018-Apr-23 07:30N 37°57' E 023°36'0 1.0
2018-Apr-23 07:00N 37°57' E 023°36'0 0.1
2018-Apr-23 06:30N 37°57' E 023°36'0 0.0
2018-Apr-23 06:00N 37°57' E 023°36'0 0.6
2018-Apr-23 05:30N 37°57' E 023°36'1 0.1
2018-Apr-22 12:41N 37°57' E 023°37'0 0.4
2018-Apr-22 12:30N 37°57' E 023°37'2 5.0
2018-Apr-22 12:00N 37°57' E 023°34'0 0.1
2018-Apr-22 11:30N 37°57' E 023°34'0 0.0
2018-Apr-22 11:00N 37°57' E 023°34'0 0.0
2018-Apr-22 10:31N 37°57' E 023°34'0 0.0
2018-Apr-22 10:00N 37°57' E 023°34'0 0.0
2018-Apr-22 09:30N 37°57' E 023°34'0 0.0
2018-Apr-22 09:00N 37°57' E 023°34'0 0.9
2018-Apr-22 08:30N 37°57' E 023°34'2 3.4
2018-Apr-22 08:01N 37°57' E 023°36'0 0.0
2018-Apr-22 07:31N 37°57' E 023°36'0 0.0
2018-Apr-22 07:01N 37°57' E 023°36'0 0.0
2018-Apr-22 06:30N 37°57' E 023°36'1 1.3
2018-Apr-22 06:01N 37°57' E 023°36'1 1.8
2018-Apr-22 05:31N 37°57' E 023°37'0 0.0
2018-Apr-21 14:14N 37°57' E 023°37'1 4.6
2018-Apr-21 14:00N 37°57' E 023°36'1 2.7
2018-Apr-21 13:30N 37°58' E 023°34'0 0.0
2018-Apr-21 13:00N 37°58' E 023°34'0 0.0
2018-Apr-21 12:30N 37°58' E 023°34'0 0.0
2018-Apr-21 12:00N 37°58' E 023°34'0 0.0
2018-Apr-21 11:30N 37°58' E 023°34'0 0.0
2018-Apr-21 11:00N 37°58' E 023°34'0 0.0
2018-Apr-21 10:30N 37°58' E 023°34'0 0.0
2018-Apr-21 10:00N 37°58' E 023°34'0 0.0
2018-Apr-21 09:30N 37°58' E 023°34'0 0.0
2018-Apr-21 09:00N 37°58' E 023°34'0 0.0
2018-Apr-21 08:30N 37°58' E 023°34'0 0.0
2018-Apr-21 08:00N 37°58' E 023°34'0 0.0
2018-Apr-21 07:30N 37°58' E 023°34'0 0.0
2018-Apr-21 07:00N 37°58' E 023°34'0 0.0
2018-Apr-21 06:30N 37°58' E 023°34'0 0.3
2018-Apr-21 06:00N 37°57' E 023°34'2 4.5
2018-Apr-21 05:30N 37°57' E 023°37'0 0.0
2018-Apr-20 18:58N 37°57' E 023°37'0 0.3
2018-Apr-20 18:30N 37°57' E 023°37'0 0.0
2018-Apr-20 18:00N 37°57' E 023°37'0 0.0
2018-Apr-20 17:30N 37°57' E 023°37'0 0.0
2018-Apr-20 17:00N 37°57' E 023°37'2 3.4
2018-Apr-20 16:30N 37°56' E 023°35'2 4.9
2018-Apr-20 16:00N 37°54' E 023°34'1 1.0
2018-Apr-20 15:30N 37°53' E 023°33'0 0.0
2018-Apr-20 15:00N 37°53' E 023°33'0 0.0
2018-Apr-20 14:30N 37°53' E 023°33'0 0.1
2018-Apr-20 14:00N 37°53' E 023°33'0 0.1
2018-Apr-20 13:30N 37°53' E 023°33'3 5.8
2018-Apr-20 13:00N 37°55' E 023°36'2 3.4
2018-Apr-20 12:30N 37°57' E 023°37'0 0.0
2018-Apr-20 12:00N 37°57' E 023°37'0 0.0
2018-Apr-20 11:30N 37°57' E 023°37'0 0.0
2018-Apr-20 11:00N 37°57' E 023°37'2 3.2
2018-Apr-20 10:30N 37°57' E 023°35'3 5.1
2018-Apr-20 10:00N 37°59' E 023°33'2 3.8
2018-Apr-20 09:30N 38°01' E 023°32'1 1.1
2018-Apr-20 08:59N 38°01' E 023°32'0 0.0
2018-Apr-20 08:29N 38°01' E 023°32'0 0.0
2018-Apr-20 08:00N 38°01' E 023°32'0 0.0
2018-Apr-20 07:30N 38°01' E 023°32'0 0.1
2018-Apr-20 07:00N 38°02' E 023°32'0 0.0
2018-Apr-20 06:30N 38°02' E 023°32'0 0.2
2018-Apr-20 06:00N 38°01' E 023°32'3 6.0
2018-Apr-20 05:29N 37°58' E 023°33'2 5.2
2018-Apr-20 05:00N 37°57' E 023°35'1 0.1
2018-Apr-19 17:59N 37°57' E 023°37'2 4.5
2018-Apr-19 17:30N 37°55' E 023°35'3 5.7
2018-Apr-19 17:00N 37°53' E 023°33'1 1.2
2018-Apr-19 16:30N 37°52' E 023°33'0 0.1
2018-Apr-19 16:01N 37°52' E 023°33'0 0.0
2018-Apr-19 15:30N 37°52' E 023°33'0 0.0
2018-Apr-19 14:59N 37°52' E 023°33'0 0.0
2018-Apr-19 14:30N 37°52' E 023°33'2 3.3
2018-Apr-19 14:00N 37°54' E 023°34'4 7.2
2018-Apr-19 13:30N 37°56' E 023°36'1 1.0
2018-Apr-19 13:00N 37°57' E 023°37'0 0.0
2018-Apr-19 12:31N 37°57' E 023°37'0 0.0
2018-Apr-19 12:01N 37°57' E 023°37'0 0.0
2018-Apr-19 11:30N 37°57' E 023°37'1 2.4
2018-Apr-19 11:01N 37°57' E 023°35'3 5.4
2018-Apr-19 10:30N 37°59' E 023°33'3 6.0
2018-Apr-19 10:00N 38°02' E 023°32'0 0.0
2018-Apr-19 08:19N 38°02' E 023°32'0 0.0
2018-Apr-19 07:49N 38°02' E 023°32'0 0.0
2018-Apr-19 07:28N 38°02' E 023°32'0 0.0
2018-Apr-19 06:59N 38°02' E 023°32'2 3.1
2018-Apr-19 06:31N 38°00' E 023°33'3 5.2
2018-Apr-19 06:00N 37°58' E 023°33'3 5.6
2018-Apr-19 05:30N 37°57' E 023°36'0 0.6
2018-Apr-19 04:51N 37°57' E 023°37'0 0.0
2018-Apr-19 04:30N 37°57' E 023°37'0 0.0
2018-Apr-19 04:00N 37°57' E 023°37'0 0.0
2018-Apr-19 03:30N 37°57' E 023°37'0 0.0
2018-Apr-19 03:00N 37°57' E 023°37'0 0.0
2018-Apr-19 02:30N 37°57' E 023°37'0 0.0
2018-Apr-19 02:00N 37°57' E 023°37'0 0.0
2018-Apr-19 01:30N 37°57' E 023°37'0 0.0
2018-Apr-19 01:00N 37°57' E 023°37'0 0.0
2018-Apr-19 00:30N 37°57' E 023°37'0 0.0
2018-Apr-19 00:00N 37°57' E 023°37'0 0.0
2018-Apr-18 23:30N 37°57' E 023°37'0 0.0
2018-Apr-18 23:00N 37°57' E 023°37'0 0.0
2018-Apr-18 22:30N 37°57' E 023°37'0 0.0
2018-Apr-18 22:00N 37°57' E 023°37'0 0.0
2018-Apr-18 21:30N 37°57' E 023°37'0 0.0
2018-Apr-18 21:00N 37°57' E 023°37'0 0.0
2018-Apr-18 20:30N 37°57' E 023°37'0 0.0
2018-Apr-18 20:00N 37°57' E 023°37'0 0.0
2018-Apr-18 19:30N 37°57' E 023°37'0 0.0
2018-Apr-18 19:00N 37°57' E 023°37'0 0.7
2018-Apr-18 18:30N 37°56' E 023°37'3 6.0
2018-Apr-18 18:00N 37°54' E 023°34'3 5.8
2018-Apr-18 17:30N 37°52' E 023°31'1 1.2
2018-Apr-18 17:00N 37°52' E 023°31'0 0.0
2018-Apr-18 16:30N 37°52' E 023°31'0 0.1
2018-Apr-18 16:00N 37°52' E 023°31'0 0.0
2018-Apr-18 15:30N 37°52' E 023°31'0 0.0
2018-Apr-18 14:53N 37°52' E 023°31'0 0.0
2018-Apr-18 14:24N 37°52' E 023°31'0 0.0
2018-Apr-18 14:00N 37°52' E 023°31'0 0.0
2018-Apr-18 13:30N 37°52' E 023°31'0 0.0
2018-Apr-18 13:00N 37°52' E 023°31'0 0.0
2018-Apr-18 12:30N 37°52' E 023°31'2 4.3
2018-Apr-18 12:00N 37°53' E 023°33'0 0.5
2018-Apr-18 11:30N 37°53' E 023°33'0 0.1
2018-Apr-18 11:00N 37°53' E 023°34'0 0.0
2018-Apr-18 10:30N 37°53' E 023°34'0 0.0
2018-Apr-18 10:00N 37°53' E 023°34'0 0.1
2018-Apr-18 09:30N 37°53' E 023°33'0 0.1
2018-Apr-18 09:00N 37°53' E 023°33'0 0.1
2018-Apr-18 08:30N 37°53' E 023°33'0 0.1
2018-Apr-18 08:00N 37°53' E 023°33'0 0.1
2018-Apr-18 07:30N 37°53' E 023°33'0 0.1
2018-Apr-18 07:00N 37°53' E 023°33'1 1.7
2018-Apr-18 06:30N 37°53' E 023°34'3 6.3
2018-Apr-18 06:00N 37°56' E 023°36'1 1.8
2018-Apr-18 05:30N 37°57' E 023°37'0 0.0
2018-Apr-17 17:55N 37°57' E 023°37'2 4.7
2018-Apr-17 17:30N 37°57' E 023°34'1 1.2
2018-Apr-17 17:00N 37°57' E 023°34'0 0.1
2018-Apr-17 16:30N 37°57' E 023°34'0 0.1
2018-Apr-17 16:00N 37°57' E 023°34'0 0.0
2018-Apr-17 15:30N 37°57' E 023°34'2 5.0
2018-Apr-17 15:00N 37°57' E 023°37'0 0.0
2018-Apr-17 14:30N 37°57' E 023°37'0 0.0
2018-Apr-17 14:00N 37°57' E 023°37'0 0.0
2018-Apr-17 13:30N 37°57' E 023°37'0 0.0
2018-Apr-17 13:00N 37°57' E 023°37'0 0.0
2018-Apr-17 12:29N 37°57' E 023°37'0 0.0
2018-Apr-17 12:00N 37°57' E 023°37'0 0.2
2018-Apr-17 11:30N 37°57' E 023°37'2 4.6
2018-Apr-17 11:00N 37°57' E 023°34'0 0.2
2018-Apr-17 10:30N 37°57' E 023°34'0 0.0
2018-Apr-17 10:00N 37°57' E 023°34'0 0.0
2018-Apr-17 09:30N 37°57' E 023°34'0 0.0
2018-Apr-17 09:00N 37°57' E 023°34'2 4.3
2018-Apr-17 08:30N 37°57' E 023°36'0 0.5
2018-Apr-17 08:00N 37°57' E 023°37'0 0.0
2018-Apr-17 07:30N 37°57' E 023°37'0 0.0
2018-Apr-17 07:00N 37°57' E 023°37'0 0.0
2018-Apr-17 06:30N 37°57' E 023°37'0 0.0
2018-Apr-17 06:00N 37°57' E 023°37'0 0.0
2018-Apr-17 05:30N 37°57' E 023°37'0 0.0
2018-Apr-17 05:00N 37°57' E 023°37'0 0.2
2018-Apr-17 04:22N 37°57' E 023°37'0 0.0
2018-Apr-16 14:32N 37°57' E 023°37'0 1.3
2018-Apr-16 14:30N 37°57' E 023°37'3 5.3
2018-Apr-16 14:00N 37°55' E 023°35'3 5.7
2018-Apr-16 13:30N 37°53' E 023°32'1 2.6
2018-Apr-16 13:00N 37°52' E 023°31'0 0.0
2018-Apr-16 12:30N 37°52' E 023°31'0 0.1
2018-Apr-16 12:00N 37°52' E 023°31'0 0.0
2018-Apr-16 11:30N 37°52' E 023°31'0 0.3
2018-Apr-16 11:00N 37°52' E 023°31'0 0.2
2018-Apr-16 10:30N 37°51' E 023°31'0 0.1
2018-Apr-16 10:00N 37°51' E 023°31'1 2.9
2018-Apr-16 09:30N 37°53' E 023°32'4 7.4
2018-Apr-16 09:00N 37°55' E 023°35'2 3.9
2018-Apr-16 08:30N 37°57' E 023°37'0 0.0
2018-Apr-16 08:00N 37°57' E 023°37'0 0.0
2018-Apr-16 07:30N 37°57' E 023°37'0 0.0
2018-Apr-16 07:00N 37°57' E 023°37'0 0.0
2018-Apr-16 06:30N 37°57' E 023°37'0 0.0
2018-Apr-16 06:00N 37°57' E 023°37'0 0.0
2018-Apr-15 21:18N 37°57' E 023°37'1 4.7
2018-Apr-15 21:00N 37°55' E 023°36'3 6.0
2018-Apr-15 20:30N 37°53' E 023°33'2 4.4
2018-Apr-15 20:00N 37°51' E 023°32'0 0.5
2018-Apr-15 19:29N 37°51' E 023°31'0 0.8
2018-Apr-15 18:56N 37°51' E 023°32'0 0.1
2018-Apr-15 18:30N 37°51' E 023°32'0 0.0
2018-Apr-15 17:58N 37°51' E 023°32'0 0.0
2018-Apr-15 17:30N 37°51' E 023°32'0 0.1
2018-Apr-15 17:00N 37°51' E 023°32'0 0.1
2018-Apr-15 16:29N 37°51' E 023°32'0 0.1
2018-Apr-15 16:00N 37°51' E 023°32'0 0.0
2018-Apr-15 15:27N 37°51' E 023°32'0 0.0
2018-Apr-15 15:00N 37°51' E 023°32'0 0.1
2018-Apr-15 14:27N 37°51' E 023°32'0 0.1
2018-Apr-15 13:51N 37°51' E 023°32'  
Track history (hours):
 
Tides and Currents Weather Stations Pressure Air Temp Water Temp Dewpoint Dewpoint Depression Visibility Wind Speed Wind Dir Waves Ship Positions

Eco Sailor

Last reported at 2018-Apr-25 12:30 UTC. Time now 2018-Apr-25 12:45 UTC.
Position N 37°57' E 023°36'.

Length 42 m; draft 3.1 m.

Type: Tanker. MMSI: 237240400.

Date/timePositionNaut miles runAvg speedWind from/ knotsBaromVisibWave heightAir tempDewpointWater temp
2018-Apr-25 12:30N 37°57' E 023°36'0 0.3
2018-Apr-25 12:00N 37°57' E 023°36'1 1.2
2018-Apr-25 11:30N 37°57' E 023°35'3 6.9
2018-Apr-25 11:00N 37°54' E 023°33'3 4.6
2018-Apr-25 10:20N 37°51' E 023°31'0 0.0
2018-Apr-25 09:59N 37°51' E 023°31'0 0.0
2018-Apr-25 08:48N 37°51' E 023°31'0 0.0
2018-Apr-25 08:19N 37°51' E 023°31'0 0.0
2018-Apr-25 08:00N 37°51' E 023°31'0 0.0
2018-Apr-25 07:15N 37°51' E 023°31'0 0.1
2018-Apr-25 06:51N 37°51' E 023°31'2 6.7
2018-Apr-25 06:30N 37°53' E 023°33'4 7.6
2018-Apr-25 06:00N 37°56' E 023°36'1 0.1
2018-Apr-24 09:06N 37°57' E 023°37'0 1.3
2018-Apr-24 09:00N 37°57' E 023°37'0 0.1
2018-Apr-24 08:30N 37°57' E 023°37'0 0.0
2018-Apr-24 08:00N 37°57' E 023°37'0 0.0
2018-Apr-24 07:30N 37°57' E 023°37'0 0.0
2018-Apr-24 07:00N 37°57' E 023°37'0 0.0
2018-Apr-24 06:30N 37°57' E 023°37'0 0.0
2018-Apr-24 06:00N 37°57' E 023°37'0 0.0
2018-Apr-24 05:30N 37°57' E 023°37'0 0.0
2018-Apr-23 12:58N 37°57' E 023°37'3 5.6
2018-Apr-23 12:30N 37°55' E 023°34'1 2.5
2018-Apr-23 12:00N 37°55' E 023°33'0 0.1
2018-Apr-23 11:30N 37°55' E 023°33'0 0.0
2018-Apr-23 11:00N 37°55' E 023°33'0 0.0
2018-Apr-23 10:30N 37°55' E 023°33'0 0.0
2018-Apr-23 10:00N 37°55' E 023°33'0 0.0
2018-Apr-23 09:30N 37°55' E 023°33'0 0.0
2018-Apr-23 09:00N 37°55' E 023°33'0 0.0
2018-Apr-23 08:30N 37°55' E 023°33'0 1.0
2018-Apr-23 08:00N 37°55' E 023°33'3 5.4
2018-Apr-23 07:30N 37°57' E 023°36'0 1.0
2018-Apr-23 07:00N 37°57' E 023°36'0 0.1
2018-Apr-23 06:30N 37°57' E 023°36'0 0.0
2018-Apr-23 06:00N 37°57' E 023°36'0 0.6
2018-Apr-23 05:30N 37°57' E 023°36'1 0.1
2018-Apr-22 12:41N 37°57' E 023°37'0 0.4
2018-Apr-22 12:30N 37°57' E 023°37'2 5.0
2018-Apr-22 12:00N 37°57' E 023°34'0 0.1
2018-Apr-22 11:30N 37°57' E 023°34'0 0.0
2018-Apr-22 11:00N 37°57' E 023°34'0 0.0
2018-Apr-22 10:31N 37°57' E 023°34'0 0.0
2018-Apr-22 10:00N 37°57' E 023°34'0 0.0
2018-Apr-22 09:30N 37°57' E 023°34'0 0.0
2018-Apr-22 09:00N 37°57' E 023°34'0 0.9
2018-Apr-22 08:30N 37°57' E 023°34'2 3.4
2018-Apr-22 08:01N 37°57' E 023°36'0 0.0
2018-Apr-22 07:31N 37°57' E 023°36'0 0.0
2018-Apr-22 07:01N 37°57' E 023°36'0 0.0
2018-Apr-22 06:30N 37°57' E 023°36'1 1.3
2018-Apr-22 06:01N 37°57' E 023°36'1 1.8
2018-Apr-22 05:31N 37°57' E 023°37'0 0.0
2018-Apr-21 14:14N 37°57' E 023°37'1 4.6
2018-Apr-21 14:00N 37°57' E 023°36'1 2.7
2018-Apr-21 13:30N 37°58' E 023°34'0 0.0
2018-Apr-21 13:00N 37°58' E 023°34'0 0.0
2018-Apr-21 12:30N 37°58' E 023°34'0 0.0
2018-Apr-21 12:00N 37°58' E 023°34'0 0.0
2018-Apr-21 11:30N 37°58' E 023°34'0 0.0
2018-Apr-21 11:00N 37°58' E 023°34'0 0.0
2018-Apr-21 10:30N 37°58' E 023°34'0 0.0
2018-Apr-21 10:00N 37°58' E 023°34'0 0.0
2018-Apr-21 09:30N 37°58' E 023°34'0 0.0
2018-Apr-21 09:00N 37°58' E 023°34'0 0.0
2018-Apr-21 08:30N 37°58' E 023°34'0 0.0
2018-Apr-21 08:00N 37°58' E 023°34'0 0.0
2018-Apr-21 07:30N 37°58' E 023°34'0 0.0
2018-Apr-21 07:00N 37°58' E 023°34'0 0.0
2018-Apr-21 06:30N 37°58' E 023°34'0 0.3
2018-Apr-21 06:00N 37°57' E 023°34'2 4.5
2018-Apr-21 05:30N 37°57' E 023°37'0 0.0
2018-Apr-20 18:58N 37°57' E 023°37'0 0.3
2018-Apr-20 18:30N 37°57' E 023°37'0 0.0
2018-Apr-20 18:00N 37°57' E 023°37'0 0.0
2018-Apr-20 17:30N 37°57' E 023°37'0 0.0
2018-Apr-20 17:00N 37°57' E 023°37'2 3.4
2018-Apr-20 16:30N 37°56' E 023°35'2 4.9
2018-Apr-20 16:00N 37°54' E 023°34'1 1.0
2018-Apr-20 15:30N 37°53' E 023°33'0 0.0
2018-Apr-20 15:00N 37°53' E 023°33'0 0.0
2018-Apr-20 14:30N 37°53' E 023°33'0 0.1
2018-Apr-20 14:00N 37°53' E 023°33'0 0.1
2018-Apr-20 13:30N 37°53' E 023°33'3 5.8
2018-Apr-20 13:00N 37°55' E 023°36'2 3.4
2018-Apr-20 12:30N 37°57' E 023°37'0 0.0
2018-Apr-20 12:00N 37°57' E 023°37'0 0.0
2018-Apr-20 11:30N 37°57' E 023°37'0 0.0
2018-Apr-20 11:00N 37°57' E 023°37'2 3.2
2018-Apr-20 10:30N 37°57' E 023°35'3 5.1
2018-Apr-20 10:00N 37°59' E 023°33'2 3.8
2018-Apr-20 09:30N 38°01' E 023°32'1 1.1
2018-Apr-20 08:59N 38°01' E 023°32'0 0.0
2018-Apr-20 08:29N 38°01' E 023°32'0 0.0
2018-Apr-20 08:00N 38°01' E 023°32'0 0.0
2018-Apr-20 07:30N 38°01' E 023°32'0 0.1
2018-Apr-20 07:00N 38°02' E 023°32'0 0.0
2018-Apr-20 06:30N 38°02' E 023°32'0 0.2
2018-Apr-20 06:00N 38°01' E 023°32'3 6.0
2018-Apr-20 05:29N 37°58' E 023°33'2 5.2
2018-Apr-20 05:00N 37°57' E 023°35'1 0.1
2018-Apr-19 17:59N 37°57' E 023°37'2 4.5
2018-Apr-19 17:30N 37°55' E 023°35'3 5.7
2018-Apr-19 17:00N 37°53' E 023°33'1 1.2
2018-Apr-19 16:30N 37°52' E 023°33'0 0.1
2018-Apr-19 16:01N 37°52' E 023°33'0 0.0
2018-Apr-19 15:30N 37°52' E 023°33'0 0.0
2018-Apr-19 14:59N 37°52' E 023°33'0 0.0
2018-Apr-19 14:30N 37°52' E 023°33'2 3.3
2018-Apr-19 14:00N 37°54' E 023°34'4 7.2
2018-Apr-19 13:30N 37°56' E 023°36'1 1.0
2018-Apr-19 13:00N 37°57' E 023°37'0 0.0
2018-Apr-19 12:31N 37°57' E 023°37'0 0.0
2018-Apr-19 12:01N 37°57' E 023°37'0 0.0
2018-Apr-19 11:30N 37°57' E 023°37'1 2.4
2018-Apr-19 11:01N 37°57' E 023°35'3 5.4
2018-Apr-19 10:30N 37°59' E 023°33'3 6.0
2018-Apr-19 10:00N 38°02' E 023°32'0 0.0
2018-Apr-19 08:19N 38°02' E 023°32'0 0.0
2018-Apr-19 07:49N 38°02' E 023°32'0 0.0
2018-Apr-19 07:28N 38°02' E 023°32'0 0.0
2018-Apr-19 06:59N 38°02' E 023°32'2 3.1
2018-Apr-19 06:31N 38°00' E 023°33'3 5.2
2018-Apr-19 06:00N 37°58' E 023°33'3 5.6
2018-Apr-19 05:30N 37°57' E 023°36'0 0.6
2018-Apr-19 04:51N 37°57' E 023°37'0 0.0
2018-Apr-19 04:30N 37°57' E 023°37'0 0.0
2018-Apr-19 04:00N 37°57' E 023°37'0 0.0
2018-Apr-19 03:30N 37°57' E 023°37'0 0.0
2018-Apr-19 03:00N 37°57' E 023°37'0 0.0
2018-Apr-19 02:30N 37°57' E 023°37'0 0.0
2018-Apr-19 02:00N 37°57' E 023°37'0 0.0
2018-Apr-19 01:30N 37°57' E 023°37'0 0.0
2018-Apr-19 01:00N 37°57' E 023°37'0 0.0
2018-Apr-19 00:30N 37°57' E 023°37'0 0.0
2018-Apr-19 00:00N 37°57' E 023°37'0 0.0
2018-Apr-18 23:30N 37°57' E 023°37'0 0.0
2018-Apr-18 23:00N 37°57' E 023°37'0 0.0
2018-Apr-18 22:30N 37°57' E 023°37'0 0.0
2018-Apr-18 22:00N 37°57' E 023°37'0 0.0
2018-Apr-18 21:30N 37°57' E 023°37'0 0.0
2018-Apr-18 21:00N 37°57' E 023°37'0 0.0
2018-Apr-18 20:30N 37°57' E 023°37'0 0.0
2018-Apr-18 20:00N 37°57' E 023°37'0 0.0
2018-Apr-18 19:30N 37°57' E 023°37'0 0.0
2018-Apr-18 19:00N 37°57' E 023°37'0 0.7
2018-Apr-18 18:30N 37°56' E 023°37'3 6.0
2018-Apr-18 18:00N 37°54' E 023°34'3 5.8
2018-Apr-18 17:30N 37°52' E 023°31'1 1.2
2018-Apr-18 17:00N 37°52' E 023°31'0 0.0
2018-Apr-18 16:30N 37°52' E 023°31'0 0.1
2018-Apr-18 16:00N 37°52' E 023°31'0 0.0
2018-Apr-18 15:30N 37°52' E 023°31'0 0.0
2018-Apr-18 14:53N 37°52' E 023°31'0 0.0
2018-Apr-18 14:24N 37°52' E 023°31'0 0.0
2018-Apr-18 14:00N 37°52' E 023°31'0 0.0
2018-Apr-18 13:30N 37°52' E 023°31'0 0.0
2018-Apr-18 13:00N 37°52' E 023°31'0 0.0
2018-Apr-18 12:30N 37°52' E 023°31'2 4.3
2018-Apr-18 12:00N 37°53' E 023°33'0 0.5
2018-Apr-18 11:30N 37°53' E 023°33'0 0.1
2018-Apr-18 11:00N 37°53' E 023°34'0 0.0
2018-Apr-18 10:30N 37°53' E 023°34'0 0.0
2018-Apr-18 10:00N 37°53' E 023°34'0 0.1
2018-Apr-18 09:30N 37°53' E 023°33'0 0.1
2018-Apr-18 09:00N 37°53' E 023°33'0 0.1
2018-Apr-18 08:30N 37°53' E 023°33'0 0.1
2018-Apr-18 08:00N 37°53' E 023°33'0 0.1
2018-Apr-18 07:30N 37°53' E 023°33'0 0.1
2018-Apr-18 07:00N 37°53' E 023°33'1 1.7
2018-Apr-18 06:30N 37°53' E 023°34'3 6.3
2018-Apr-18 06:00N 37°56' E 023°36'1 1.8
2018-Apr-18 05:30N 37°57' E 023°37'0 0.0
2018-Apr-17 17:55N 37°57' E 023°37'2 4.7
2018-Apr-17 17:30N 37°57' E 023°34'1 1.2
2018-Apr-17 17:00N 37°57' E 023°34'0 0.1
2018-Apr-17 16:30N 37°57' E 023°34'0 0.1
2018-Apr-17 16:00N 37°57' E 023°34'0 0.0
2018-Apr-17 15:30N 37°57' E 023°34'2 5.0
2018-Apr-17 15:00N 37°57' E 023°37'0 0.0
2018-Apr-17 14:30N 37°57' E 023°37'0 0.0
2018-Apr-17 14:00N 37°57' E 023°37'0 0.0
2018-Apr-17 13:30N 37°57' E 023°37'0 0.0
2018-Apr-17 13:00N 37°57' E 023°37'0 0.0
2018-Apr-17 12:29N 37°57' E 023°37'0 0.0
2018-Apr-17 12:00N 37°57' E 023°37'0 0.2
2018-Apr-17 11:30N 37°57' E 023°37'2 4.6
2018-Apr-17 11:00N 37°57' E 023°34'0 0.2
2018-Apr-17 10:30N 37°57' E 023°34'0 0.0
2018-Apr-17 10:00N 37°57' E 023°34'0 0.0
2018-Apr-17 09:30N 37°57' E 023°34'0 0.0
2018-Apr-17 09:00N 37°57' E 023°34'2 4.3
2018-Apr-17 08:30N 37°57' E 023°36'0 0.5
2018-Apr-17 08:00N 37°57' E 023°37'0 0.0
2018-Apr-17 07:30N 37°57' E 023°37'0 0.0
2018-Apr-17 07:00N 37°57' E 023°37'0 0.0
2018-Apr-17 06:30N 37°57' E 023°37'0 0.0
2018-Apr-17 06:00N 37°57' E 023°37'0 0.0
2018-Apr-17 05:30N 37°57' E 023°37'0 0.0
2018-Apr-17 05:00N 37°57' E 023°37'0 0.2
2018-Apr-17 04:22N 37°57' E 023°37'0 0.0
2018-Apr-16 14:32N 37°57' E 023°37'0 1.3
2018-Apr-16 14:30N 37°57' E 023°37'3 5.3
2018-Apr-16 14:00N 37°55' E 023°35'3 5.7
2018-Apr-16 13:30N 37°53' E 023°32'1 2.6
2018-Apr-16 13:00N 37°52' E 023°31'0 0.0
2018-Apr-16 12:30N 37°52' E 023°31'0 0.1
2018-Apr-16 12:00N 37°52' E 023°31'0 0.0
2018-Apr-16 11:30N 37°52' E 023°31'0 0.3
2018-Apr-16 11:00N 37°52' E 023°31'0 0.2
2018-Apr-16 10:30N 37°51' E 023°31'0 0.1
2018-Apr-16 10:00N 37°51' E 023°31'1 2.9
2018-Apr-16 09:30N 37°53' E 023°32'4 7.4
2018-Apr-16 09:00N 37°55' E 023°35'2 3.9
2018-Apr-16 08:30N 37°57' E 023°37'0 0.0
2018-Apr-16 08:00N 37°57' E 023°37'0 0.0
2018-Apr-16 07:30N 37°57' E 023°37'0 0.0
2018-Apr-16 07:00N 37°57' E 023°37'0 0.0
2018-Apr-16 06:30N 37°57' E 023°37'0 0.0
2018-Apr-16 06:00N 37°57' E 023°37'0 0.0
2018-Apr-15 21:18N 37°57' E 023°37'1 4.7
2018-Apr-15 21:00N 37°55' E 023°36'3 6.0
2018-Apr-15 20:30N 37°53' E 023°33'2 4.4
2018-Apr-15 20:00N 37°51' E 023°32'0 0.5
2018-Apr-15 19:29N 37°51' E 023°31'0 0.8
2018-Apr-15 18:56N 37°51' E 023°32'0 0.1
2018-Apr-15 18:30N 37°51' E 023°32'0 0.0
2018-Apr-15 17:58N 37°51' E 023°32'0 0.0
2018-Apr-15 17:30N 37°51' E 023°32'0 0.1
2018-Apr-15 17:00N 37°51' E 023°32'0 0.1
2018-Apr-15 16:29N 37°51' E 023°32'0 0.1
2018-Apr-15 16:00N 37°51' E 023°32'0 0.0
2018-Apr-15 15:27N 37°51' E 023°32'0 0.0
2018-Apr-15 15:00N 37°51' E 023°32'0 0.1
2018-Apr-15 14:27N 37°51' E 023°32'0 0.1
2018-Apr-15 13:51N 37°51' E 023°32'  

Dump ship's entire track history